Blevins, Texas
Current Conditions -  °F | °C
As of 3:35 PM on Saturday 25 Oct 2014 (Local Time) from KTPL Reporting Station
Clear Clear  
Wind Chill: 86°   Ceiling: Unl
Heat Index: 86°   Visibility: 10mi
Dew Point: 59°   Wind: 8mph
Humidity: 40%   Direction: 180°S
Pressure: 30.09"   Gusts: NA
Location:  31.265°N, 97.2164°W
Report Text: KTPL 252035Z AUTO 18007KT 10SM CLR 30/15 A3009 RMK AO1
Loading
Personal Weather Stations






























Interactive Weather Map
Tropical Storm Tracking
New forecast layout! Learn more

10-Day Weather Forecast

Advertisements
Track Severe Weather on mobile